KTPF/TPF METAR and TAF weather

Enter ICAO airport designator
Station Type Date Time Source
KTPF METAR 2020/01/26 00:55 UTC NOAA

KTPF 260055Z AUTO 31004KT 10SM BKN100 OVC120 13/10 A3013 RMK AO2


Station Type Date Time Source
KTPF Decoded METAR 2020/01/26 00:55 UTC NOAA

Tampa, Peter O Knight Airport, FL, United States (KTPF) 27-54-56N 082-26-57W
Jan 25, 2020 - 07:55 PM EST / 2020.01.26 0055 UTC
Wind: from the NW (310 degrees) at 5 MPH (4 KT):0
Visibility: 10 mile(s):0
Sky conditions: overcast
Temperature: 55 F (13 C)
Dew Point: 50 F (10 C)
Relative Humidity: 81%
Pressure (altimeter): 30.13 in. Hg (1020 hPa)
ob: KTPF 260055Z AUTO 31004KT 10SM BKN100 OVC120 13/10 A3013 RMK AO2
cycle: 1

Station Type Date Time Source
KTPF TAF UTC NOAA

Error!

Example: see airport list